Arbon, Idaho
Current Conditions -  °F | °C
As of 12:53 AM on Friday 31 Oct 2014 (Local Time) from KPIH Reporting Station
Clear Clear  
Wind Chill: 38°   Ceiling: Unl
Heat Index: 38°   Visibility: 10mi
Dew Point: 31°   Wind: 3mph
Humidity: 76%   Direction: 50°NE
Pressure: 30.06"   Gusts: NA
Location:  42.46°N, 112.57°W
Report Text: KPIH 310653Z AUTO 05003KT 10SM CLR 03/M01 A3006 RMK AO2 SLP163 T00331006 402170017
Loading
Personal Weather Stations






























Interactive Weather Map
Tropical Storm Tracking
New forecast layout! Learn more

10-Day Weather Forecast

Advertisements
Track Severe Weather on mobile